Time,TemperatureF,DewpointF,PressureIn,WindDirection,WindDirectionDegrees,WindSpeedMPH,WindSpeedGustMPH,Humidity,HourlyPrecipIn,Conditions,Clouds,dailyrainin,SoftwareType,DateUTC
2013-03-21 00:09:00,42.7,38.0,30.04,WSW,252,0.0,0.0,83,0.00,,,0.00,weatherlink.com 1.10,2013-03-21 05:09:00,
2013-03-21 00:24:00,42.8,37.0,30.04,WSW,252,0.0,0.0,79,0.00,,,0.00,weatherlink.com 1.10,2013-03-21 05:24:00,
2013-03-21 00:39:00,41.4,36.0,30.04,WSW,252,0.0,0.0,81,0.00,,,0.00,weatherlink.com 1.10,2013-03-21 05:39:00,
2013-03-21 00:54:00,40.3,36.0,30.04,WSW,252,0.0,0.0,84,0.00,,,0.00,weatherlink.com 1.10,2013-03-21 05:54:00,
2013-03-21 01:09:00,39.8,36.0,30.03,WSW,252,0.0,0.0,87,0.00,,,0.00,weatherlink.com 1.10,2013-03-21 06:09:00,
2013-03-21 01:24:00,40.6,37.0,30.02,WSW,252,0.0,0.0,87,0.00,,,0.00,weatherlink.com 1.10,2013-03-21 06:24:00,
2013-03-21 01:39:00,40.2,37.0,30.02,WSW,252,0.0,0.0,88,0.00,,,0.00,weatherlink.com 1.10,2013-03-21 06:39:00,
2013-03-21 01:54:00,40.0,37.0,30.02,WSW,252,0.0,0.0,89,0.00,,,0.00,weatherlink.com 1.10,2013-03-21 06:54:00,
2013-03-21 02:09:00,39.8,37.0,30.02,WSW,252,0.0,0.0,91,0.00,,,0.00,weatherlink.com 1.10,2013-03-21 07:09:00,
2013-03-21 02:24:00,39.8,37.0,30.02,WSW,252,0.0,0.0,90,0.00,,,0.00,weatherlink.com 1.10,2013-03-21 07:24:00,
2013-03-21 02:39:00,39.8,38.0,30.02,WSW,252,0.0,0.0,93,0.00,,,0.00,weatherlink.com 1.10,2013-03-21 07:39:00,
2013-03-21 02:54:00,39.6,38.0,30.02,WSW,252,0.0,0.0,94,0.00,,,0.00,weatherlink.com 1.10,2013-03-21 07:54:00,
2013-03-21 03:00:00,39.4,37.8,30.03,WSW,252,0.0,0.0,94,0.00,,,0.00,Wunderground v.1.15,2013-03-21 08:00:00,
2013-03-21 03:05:00,39.2,37.6,30.02,WSW,252,0.0,0.0,94,0.00,,,0.00,Wunderground v.1.15,2013-03-21 08:05:00,
2013-03-21 03:15:00,38.3,36.5,30.02,WSW,252,0.0,0.0,93,0.00,,,0.00,Wunderground v.1.15,2013-03-21 08:15:00,
2013-03-21 03:25:00,37.9,37.0,30.02,WSW,252,0.0,0.0,95,0.00,,,0.00,weatherlink.com 1.10,2013-03-21 08:25:00,
2013-03-21 03:40:00,37.3,36.0,30.01,WSW,252,0.0,0.0,95,0.00,,,0.00,weatherlink.com 1.10,2013-03-21 08:40:00,
2013-03-21 03:55:00,37.9,37.0,30.01,WSW,252,0.0,0.0,95,0.00,,,0.00,weatherlink.com 1.10,2013-03-21 08:55:00,
2013-03-21 04:10:00,38.0,37.0,30.00,WSW,252,0.0,0.0,95,0.00,,,0.00,weatherlink.com 1.10,2013-03-21 09:10:00,
2013-03-21 04:25:00,37.9,37.0,30.00,WSW,252,0.0,0.0,95,0.00,,,0.00,weatherlink.com 1.10,2013-03-21 09:25:00,
2013-03-21 04:40:00,37.6,36.0,30.00,WSW,252,0.0,0.0,95,0.00,,,0.00,weatherlink.com 1.10,2013-03-21 09:40:00,
2013-03-21 04:55:00,37.6,36.0,30.00,WSW,252,0.0,0.0,95,0.00,,,0.00,weatherlink.com 1.10,2013-03-21 09:55:00,
2013-03-21 05:05:00,38.2,37.2,30.00,WSW,252,0.0,0.0,96,0.00,,,0.00,Wunderground v.1.15,2013-03-21 10:05:00,
2013-03-21 05:11:00,38.4,37.0,30.00,WSW,252,0.0,0.0,96,0.00,,,0.00,weatherlink.com 1.10,2013-03-21 10:11:00,
2013-03-21 05:20:00,38.7,37.7,30.01,WSW,252,0.0,0.0,96,0.00,,,0.00,Wunderground v.1.15,2013-03-21 10:20:00,
2013-03-21 05:25:00,38.9,37.9,30.01,WSW,252,0.0,0.0,96,0.00,,,0.00,Wunderground v.1.15,2013-03-21 10:25:00,
2013-03-21 05:30:00,38.9,37.9,30.01,WSW,252,0.0,0.0,96,0.00,,,0.00,Wunderground v.1.15,2013-03-21 10:30:00,
2013-03-21 05:35:00,38.7,37.7,30.01,WSW,252,0.0,0.0,96,0.00,,,0.00,Wunderground v.1.15,2013-03-21 10:35:00,
2013-03-21 05:41:00,38.5,38.0,30.01,WSW,251,0.0,0.0,96,0.00,,,0.00,weatherlink.com 1.10,2013-03-21 10:41:00,
2013-03-21 05:55:00,38.5,38.0,30.02,WSW,251,0.0,0.0,96,0.00,,,0.00,weatherlink.com 1.10,2013-03-21 10:55:00,
2013-03-21 06:10:00,38.5,38.0,30.01,WSW,252,0.0,0.0,96,0.00,,,0.00,weatherlink.com 1.10,2013-03-21 11:10:00,
2013-03-21 06:25:00,39.2,39.0,30.02,WSW,251,0.0,0.0,97,0.00,,,0.00,weatherlink.com 1.10,2013-03-21 11:25:00,
2013-03-21 06:40:00,39.2,39.0,30.03,WSW,252,0.0,0.0,97,0.00,,,0.00,weatherlink.com 1.10,2013-03-21 11:40:00,
2013-03-21 06:55:00,39.0,38.0,30.03,WSW,251,0.0,0.0,97,0.00,,,0.00,weatherlink.com 1.10,2013-03-21 11:55:00,
2013-03-21 07:10:00,39.2,39.0,30.04,WSW,252,0.0,0.0,97,0.00,,,0.00,weatherlink.com 1.10,2013-03-21 12:10:00,
2013-03-21 07:25:00,39.5,39.0,30.05,SW,214,0.0,0.0,97,0.00,,,0.00,weatherlink.com 1.10,2013-03-21 12:25:00,
2013-03-21 07:40:00,39.7,39.0,30.05,SW,214,0.0,0.0,96,0.00,,,0.00,weatherlink.com 1.10,2013-03-21 12:40:00,
2013-03-21 07:55:00,40.5,40.0,30.05,ENE,63,0.0,0.0,96,0.00,,,0.00,weatherlink.com 1.10,2013-03-21 12:55:00,
2013-03-21 08:10:00,42.4,41.0,30.05,SW,226,0.0,1.0,94,0.00,,,0.00,weatherlink.com 1.10,2013-03-21 13:10:00,
2013-03-21 08:25:00,46.0,43.0,30.06,ENE,61,0.0,1.0,89,0.00,,,0.00,weatherlink.com 1.10,2013-03-21 13:25:00,
2013-03-21 08:40:00,47.8,42.0,30.05,WNW,301,0.0,1.0,81,0.00,,,0.00,weatherlink.com 1.10,2013-03-21 13:40:00,
2013-03-21 08:55:00,50.1,42.0,30.06,NW,323,0.0,1.0,74,0.00,,,0.00,weatherlink.com 1.10,2013-03-21 13:55:00,
2013-03-21 09:10:00,51.8,36.0,30.06,NE,49,4.0,7.0,56,0.00,,,0.00,weatherlink.com 1.10,2013-03-21 14:10:00,
2013-03-21 09:25:00,53.0,37.0,30.06,NW,321,1.0,10.0,55,0.00,,,0.00,weatherlink.com 1.10,2013-03-21 14:25:00,
2013-03-21 09:35:00,54.2,36.5,30.06,WNW,297,2.0,3.0,51,0.00,,,0.00,Wunderground v.1.15,2013-03-21 14:35:00,
2013-03-21 09:45:00,54.1,35.3,30.07,East,94,2.0,2.0,49,0.00,,,0.00,Wunderground v.1.15,2013-03-21 14:45:00,
2013-03-21 09:50:00,53.6,34.4,30.06,ENE,64,2.0,5.0,48,0.00,,,0.00,Wunderground v.1.15,2013-03-21 14:50:00,
2013-03-21 09:55:00,53.5,34.8,30.06,ENE,77,4.0,6.0,49,0.00,,,0.00,Wunderground v.1.15,2013-03-21 14:55:00,
2013-03-21 10:00:00,53.8,35.1,30.06,ENE,62,3.0,3.0,49,0.00,,,0.00,Wunderground v.1.15,2013-03-21 15:00:00,
2013-03-21 10:05:00,54.0,34.2,30.06,NE,56,4.0,4.0,47,0.00,,,0.00,Wunderground v.1.15,2013-03-21 15:05:00,
2013-03-21 10:11:00,54.0,34.0,30.06,NE,44,2.0,8.0,47,0.00,,,0.00,weatherlink.com 1.10,2013-03-21 15:11:00,
2013-03-21 10:20:00,54.5,34.7,30.06,WSW,246,3.0,3.0,47,0.00,,,0.00,Wunderground v.1.15,2013-03-21 15:20:00,
2013-03-21 10:25:00,54.2,34.4,30.06,East,82,2.0,4.0,47,0.00,,,0.00,Wunderground v.1.15,2013-03-21 15:25:00,
2013-03-21 10:56:00,56.0,35.0,30.05,NNW,330,0.0,7.0,45,0.00,,,0.00,weatherlink.com 1.10,2013-03-21 15:56:00,
2013-03-21 11:11:00,57.0,34.0,30.05,NE,44,0.0,6.0,43,0.00,,,0.00,weatherlink.com 1.10,2013-03-21 16:11:00,
2013-03-21 11:25:00,57.7,34.1,30.05,ENE,67,2.0,12.0,41,0.00,,,0.00,Wunderground v.1.15,2013-03-21 16:25:00,
2013-03-21 11:30:00,58.3,35.9,30.04,ESE,110,1.0,1.0,43,0.00,,,0.00,Wunderground v.1.15,2013-03-21 16:30:00,
2013-03-21 11:35:00,58.4,35.4,30.04,NE,39,1.0,5.0,42,0.00,,,0.00,Wunderground v.1.15,2013-03-21 16:35:00,
2013-03-21 11:40:00,58.6,36.7,30.04,ENE,75,2.0,2.0,44,0.00,,,0.00,Wunderground v.1.15,2013-03-21 16:40:00,
2013-03-21 11:45:00,59.3,36.8,30.04,East,82,2.0,8.0,43,0.00,,,0.00,Wunderground v.1.15,2013-03-21 16:45:00,
2013-03-21 11:50:00,59.7,34.7,30.04,ENE,62,2.0,2.0,39,0.00,,,0.00,Wunderground v.1.15,2013-03-21 16:50:00,
2013-03-21 11:57:00,59.8,36.0,30.04,NNW,330,1.0,7.0,42,0.00,,,0.00,weatherlink.com 1.10,2013-03-21 16:57:00,
2013-03-21 12:12:00,60.3,34.0,30.04,NW,304,2.0,8.0,38,0.00,,,0.00,weatherlink.com 1.10,2013-03-21 17:12:00,
2013-03-21 12:27:00,60.9,36.0,30.02,NW,315,2.0,10.0,39,0.00,,,0.00,weatherlink.com 1.10,2013-03-21 17:27:00,
2013-03-21 12:57:00,62.8,35.0,30.00,NE,47,4.0,6.0,35,0.00,,,0.00,weatherlink.com 1.10,2013-03-21 17:57:00,
2013-03-21 13:12:00,62.2,33.0,30.00,NW,308,0.0,8.0,34,0.00,,,0.00,weatherlink.com 1.10,2013-03-21 18:12:00,
2013-03-21 13:27:00,64.5,36.0,29.99,NW,324,0.0,6.0,35,0.00,,,0.00,weatherlink.com 1.10,2013-03-21 18:27:00,
2013-03-21 13:42:00,65.2,36.0,29.98,ENE,73,2.0,8.0,34,0.00,,,0.00,weatherlink.com 1.10,2013-03-21 18:42:00,
2013-03-21 13:57:00,65.9,34.0,29.97,East,91,0.0,4.0,30,0.00,,,0.00,weatherlink.com 1.10,2013-03-21 18:57:00,
2013-03-21 14:10:00,65.6,34.1,29.97,ENE,78,1.0,1.0,31,0.00,,,0.00,Wunderground v.1.15,2013-03-21 19:10:00,
2013-03-21 14:15:00,65.5,34.8,29.96,ENE,69,2.0,2.0,32,0.00,,,0.00,Wunderground v.1.15,2013-03-21 19:15:00,
2013-03-21 14:25:00,65.8,34.3,29.95,NNE,15,2.0,7.0,31,0.00,,,0.00,Wunderground v.1.15,2013-03-21 19:25:00,
2013-03-21 14:30:00,66.7,36.7,29.95,NE,41,2.0,2.0,33,0.00,,,0.00,Wunderground v.1.15,2013-03-21 19:30:00,
2013-03-21 14:35:00,67.2,38.6,29.95,South,172,1.0,2.0,35,0.00,,,0.00,Wunderground v.1.15,2013-03-21 19:35:00,
2013-03-21 14:40:00,67.9,35.3,29.95,ENE,75,1.0,5.0,30,0.00,,,0.00,Wunderground v.1.15,2013-03-21 19:40:00,
2013-03-21 14:45:00,67.3,36.4,29.94,NE,49,1.0,5.0,32,0.00,,,0.00,Wunderground v.1.15,2013-03-21 19:45:00,
2013-03-21 14:55:00,66.4,33.2,29.94,NE,50,2.0,2.0,29,0.00,,,0.00,Wunderground v.1.15,2013-03-21 19:55:00,
2013-03-21 15:00:00,66.3,34.7,29.93,NW,316,3.0,3.0,31,0.00,,,0.00,Wunderground v.1.15,2013-03-21 20:00:00,
2013-03-21 15:05:00,66.9,36.1,29.93,East,84,2.0,3.0,32,0.00,,,0.00,Wunderground v.1.15,2013-03-21 20:05:00,
2013-03-21 15:12:00,66.8,36.0,29.93,NW,319,2.0,6.0,32,0.00,,,0.00,weatherlink.com 1.10,2013-03-21 20:12:00,
2013-03-21 15:27:00,66.9,35.0,29.92,ENE,73,2.0,7.0,31,0.00,,,0.00,weatherlink.com 1.10,2013-03-21 20:27:00,
2013-03-21 15:42:00,67.1,42.0,29.92,ESE,107,0.0,6.0,41,0.00,,,0.00,weatherlink.com 1.10,2013-03-21 20:42:00,
2013-03-21 15:50:00,67.0,43.8,29.92,ESE,103,1.0,5.0,43,0.00,,,0.00,Wunderground v.1.15,2013-03-21 20:50:00,
2013-03-21 15:55:00,66.0,42.9,29.92,SE,128,2.0,6.0,43,0.00,,,0.00,Wunderground v.1.15,2013-03-21 20:55:00,
2013-03-21 16:00:00,65.7,43.8,29.92,South,172,2.0,2.0,45,0.00,,,0.00,Wunderground v.1.15,2013-03-21 21:00:00,
2013-03-21 16:05:00,66.3,42.5,29.92,ENE,70,1.0,2.0,42,0.00,,,0.00,Wunderground v.1.15,2013-03-21 21:05:00,
2013-03-21 16:12:00,66.1,42.0,29.91,NW,316,2.0,9.0,42,0.00,,,0.00,weatherlink.com 1.10,2013-03-21 21:12:00,
2013-03-21 16:20:00,65.6,41.9,29.91,NW,321,2.0,2.0,42,0.00,,,0.00,Wunderground v.1.15,2013-03-21 21:20:00,
2013-03-21 16:27:00,65.2,42.0,29.91,ENE,63,3.0,7.0,43,0.00,,,0.00,weatherlink.com 1.10,2013-03-21 21:27:00,
2013-03-21 16:42:00,63.5,42.0,29.90,WSW,249,4.0,10.0,46,0.00,,,0.00,weatherlink.com 1.10,2013-03-21 21:42:00,
2013-03-21 16:57:00,61.9,43.0,29.91,SSE,155,0.0,8.0,50,0.00,,,0.00,weatherlink.com 1.10,2013-03-21 21:57:00,
2013-03-21 17:13:00,62.1,43.0,29.90,South,191,1.0,7.0,50,0.00,,,0.00,weatherlink.com 1.10,2013-03-21 22:13:00,
2013-03-21 17:20:00,61.8,42.4,29.90,SE,131,1.0,6.0,49,0.00,,,0.00,Wunderground v.1.15,2013-03-21 22:20:00,
2013-03-21 17:25:00,61.2,42.4,29.91,SW,229,2.0,6.0,50,0.00,,,0.00,Wunderground v.1.15,2013-03-21 22:25:00,
2013-03-21 17:30:00,60.5,42.8,29.90,East,90,2.0,3.0,52,0.00,,,0.00,Wunderground v.1.15,2013-03-21 22:30:00,
2013-03-21 17:35:00,60.2,43.0,29.91,South,177,1.0,3.0,53,0.00,,,0.00,Wunderground v.1.15,2013-03-21 22:35:00,
2013-03-21 17:42:00,60.0,43.0,29.91,NE,49,0.0,4.0,53,0.00,,,0.00,weatherlink.com 1.10,2013-03-21 22:42:00,
2013-03-21 17:50:00,59.4,43.2,29.91,SSE,153,1.0,1.0,55,0.00,,,0.00,Wunderground v.1.15,2013-03-21 22:50:00,
2013-03-21 17:57:00,59.0,43.0,29.91,ENE,58,0.0,5.0,56,0.00,,,0.00,weatherlink.com 1.10,2013-03-21 22:57:00,
2013-03-21 18:05:00,58.4,43.2,29.91,ESE,118,2.0,3.0,57,0.00,,,0.00,Wunderground v.1.15,2013-03-21 23:05:00,
2013-03-21 18:12:00,58.2,43.0,29.91,South,186,0.0,5.0,58,0.00,,,0.00,weatherlink.com 1.10,2013-03-21 23:12:00,
2013-03-21 18:20:00,58.3,43.6,29.91,East,101,0.0,2.0,58,0.00,,,0.00,Wunderground v.1.15,2013-03-21 23:20:00,
2013-03-21 18:25:00,58.3,44.0,29.90,South,173,1.0,2.0,59,0.00,,,0.00,Wunderground v.1.15,2013-03-21 23:25:00,
2013-03-21 18:30:00,58.2,43.9,29.90,South,172,1.0,1.0,59,0.00,,,0.00,Wunderground v.1.15,2013-03-21 23:30:00,
2013-03-21 18:35:00,57.9,43.7,29.90,SE,128,0.0,1.0,59,0.00,,,0.00,Wunderground v.1.15,2013-03-21 23:35:00,
2013-03-21 18:42:00,57.5,44.0,29.90,South,174,0.0,2.0,60,0.00,,,0.00,weatherlink.com 1.10,2013-03-21 23:42:00,
2013-03-21 18:55:00,56.7,43.0,29.89,ESE,115,0.0,0.0,60,0.00,,,0.00,Wunderground v.1.15,2013-03-21 23:55:00,
2013-03-21 19:05:00,56.1,42.8,29.89,SE,145,0.0,0.0,61,0.00,,,0.00,Wunderground v.1.15,2013-03-22 00:05:00,
2013-03-21 19:13:00,55.5,43.0,29.89,SSE,147,0.0,1.0,63,0.00,,,0.00,weatherlink.com 1.10,2013-03-22 00:13:00,
2013-03-21 19:20:00,55.1,43.5,29.89,SSW,198,0.0,0.0,65,0.00,,,0.00,Wunderground v.1.15,2013-03-22 00:20:00,
2013-03-21 19:25:00,55.0,43.8,29.89,SSW,198,0.0,0.0,66,0.00,,,0.00,Wunderground v.1.15,2013-03-22 00:25:00,
2013-03-21 19:30:00,54.9,43.7,29.90,South,172,0.0,0.0,66,0.00,,,0.00,Wunderground v.1.15,2013-03-22 00:30:00,
2013-03-21 19:35:00,54.8,43.7,29.90,South,172,0.0,0.0,66,0.00,,,0.00,Wunderground v.1.15,2013-03-22 00:35:00,
2013-03-21 19:43:00,54.6,45.0,29.90,South,172,0.0,0.0,69,0.00,,,0.00,weatherlink.com 1.10,2013-03-22 00:43:00,
2013-03-21 19:50:00,54.5,44.5,29.90,South,171,0.0,0.0,69,0.00,,,0.00,Wunderground v.1.15,2013-03-22 00:50:00,
2013-03-21 19:58:00,54.3,44.0,29.89,South,172,0.0,0.0,69,0.00,,,0.00,weatherlink.com 1.10,2013-03-22 00:58:00,
2013-03-21 20:05:00,54.3,44.7,29.89,South,172,0.0,0.0,70,0.00,,,0.00,Wunderground v.1.15,2013-03-22 01:05:00,
2013-03-21 20:13:00,54.1,45.0,29.89,South,172,0.0,0.0,70,0.00,,,0.00,weatherlink.com 1.10,2013-03-22 01:13:00,
2013-03-21 20:20:00,53.7,44.5,29.90,South,172,0.0,0.0,71,0.00,,,0.00,Wunderground v.1.15,2013-03-22 01:20:00,
2013-03-21 20:25:00,53.6,44.8,29.90,South,172,0.0,0.0,72,0.00,,,0.00,Wunderground v.1.15,2013-03-22 01:25:00,
2013-03-21 20:43:00,52.4,45.0,29.90,South,172,0.0,0.0,75,0.00,,,0.00,weatherlink.com 1.10,2013-03-22 01:43:00,
2013-03-21 20:58:00,51.5,46.0,29.90,South,172,0.0,0.0,80,0.00,,,0.00,weatherlink.com 1.10,2013-03-22 01:58:00,
2013-03-21 21:13:00,50.9,46.0,29.91,South,171,0.0,0.0,84,0.00,,,0.00,weatherlink.com 1.10,2013-03-22 02:13:00,
2013-03-21 21:28:00,49.9,46.0,29.91,South,172,0.0,0.0,86,0.00,,,0.00,weatherlink.com 1.10,2013-03-22 02:28:00,
2013-03-21 21:43:00,49.0,46.0,29.91,South,172,0.0,0.0,88,0.00,,,0.00,weatherlink.com 1.10,2013-03-22 02:43:00,
2013-03-21 21:58:00,48.4,45.0,29.91,South,172,0.0,0.0,89,0.00,,,0.00,weatherlink.com 1.10,2013-03-22 02:58:00,
2013-03-21 22:13:00,48.3,46.0,29.91,South,172,0.0,0.0,90,0.00,,,0.00,weatherlink.com 1.10,2013-03-22 03:13:00,
2013-03-21 22:28:00,48.9,46.0,29.90,South,172,0.0,0.0,89,0.00,,,0.00,weatherlink.com 1.10,2013-03-22 03:28:00,
2013-03-21 22:43:00,48.3,45.0,29.90,South,172,0.0,0.0,87,0.00,,,0.00,weatherlink.com 1.10,2013-03-22 03:43:00,
2013-03-21 22:58:00,47.6,44.0,29.91,South,172,0.0,0.0,88,0.00,,,0.00,weatherlink.com 1.10,2013-03-22 03:58:00,
2013-03-21 23:13:00,47.5,45.0,29.89,South,172,0.0,0.0,89,0.00,,,0.00,weatherlink.com 1.10,2013-03-22 04:13:00,
2013-03-21 23:28:00,46.8,44.0,29.89,South,172,0.0,0.0,90,0.00,,,0.00,weatherlink.com 1.10,2013-03-22 04:28:00,
2013-03-21 23:43:00,46.0,43.0,29.89,South,172,0.0,0.0,90,0.00,,,0.00,weatherlink.com 1.10,2013-03-22 04:43:00,
2013-03-21 23:58:00,46.6,45.0,29.89,South,172,0.0,0.0,93,0.00,,,0.00,weatherlink.com 1.10,2013-03-22 04:58:00,